Time;durP1;ratioP1;P1;durP2;ratioP2;P2;SDS_P1;SDS_P2;PMS_P1;PMS_P2;Temp;Humidity;BMP_temperature;BMP_pressure;BME280_temperature;BME280_humidity;BME280_pressure;Samples;Min_cycle;Max_cycle;Signal;HPM_P1;HPM_P2
2021/12/15 00:01:05;;;;;;;23.30;14.25;;;;;;;2.05;64.17;100961.78;7657921;32;37583;-78
2021/12/15 00:05:25;;;;;;;29.87;15.40;;;;;;;2.19;63.83;100950.19;7659079;32;39400;-78
2021/12/15 00:09:41;;;;;;;26.12;14.13;;;;;;;1.90;64.54;100958.28;7658815;32;40863;-78
2021/12/15 00:13:57;;;;;;;27.58;14.90;;;;;;;2.20;63.80;100954.53;7658876;32;38140;-78
2021/12/15 00:18:15;;;;;;;26.20;14.38;;;;;;;2.23;63.67;100948.78;7658902;32;37777;-78
2021/12/15 00:22:31;;;;;;;27.50;14.07;;;;;;;2.31;63.54;100950.53;7658814;32;39397;-79
2021/12/15 00:26:47;;;;;;;32.63;14.25;;;;;;;2.40;63.11;100944.03;7658766;32;39943;-78
2021/12/15 00:53:04;;;;;;;37.78;18.90;;;;;;;2.16;63.10;100953.25;7658511;32;39410;-78
2021/12/15 00:57:21;;;;;;;29.45;16.37;;;;;;;2.24;62.88;100949.59;7658496;32;37172;-78
2021/12/15 01:01:38;;;;;;;31.77;16.80;;;;;;;2.12;63.01;100960.03;7658352;32;39351;-78
2021/12/15 01:06:02;;;;;;;32.90;18.27;;;;;;;2.17;62.56;100968.34;7658567;32;38998;-78
2021/12/15 01:10:26;;;;;;;29.12;15.70;;;;;;;2.27;62.31;100969.94;7658217;32;38954;-78
2021/12/15 01:23:41;;;;;;;32.50;17.15;;;;;;;1.99;62.58;100978.69;7658175;32;39611;-77
2021/12/15 01:27:59;;;;;;;33.45;17.95;;;;;;;1.91;62.66;100970.72;7657906;32;38229;-78
2021/12/15 01:32:16;;;;;;;27.23;15.60;;;;;;;2.01;62.26;100973.94;7658158;32;36734;-78
2021/12/15 01:36:32;;;;;;;29.67;16.12;;;;;;;1.89;62.81;100973.59;7657946;32;40172;-78
2021/12/15 01:40:48;;;;;;;30.50;16.90;;;;;;;1.85;63.15;100977.69;7657774;32;40043;-77
2021/12/15 01:49:46;;;;;;;28.38;16.00;;;;;;;1.91;63.06;100971.53;7657838;32;37059;-77
2021/12/15 01:54:04;;;;;;;32.37;16.97;;;;;;;2.01;62.61;100977.47;7657883;32;39260;-78
2021/12/15 01:58:20;;;;;;;28.65;15.57;;;;;;;2.03;62.71;100966.53;7657591;32;40008;-78
2021/12/15 02:02:36;;;;;;;24.00;14.93;;;;;;;1.98;62.60;100971.63;7657321;32;38128;-77
2021/12/15 02:06:54;;;;;;;26.02;15.02;;;;;;;2.22;61.85;100965.13;7655762;32;37212;-79
2021/12/15 02:11:11;;;;;;;24.75;14.85;;;;;;;2.03;62.39;100961.16;7655332;32;40871;-78
2021/12/15 02:15:31;;;;;;;34.00;15.18;;;;;;;2.15;62.06;100964.19;7654091;32;39982;-78
2021/12/15 02:19:47;;;;;;;30.08;15.15;;;;;;;2.17;61.88;100975.59;7655114;32;38628;-78
2021/12/15 02:24:04;;;;;;;33.47;16.35;;;;;;;2.06;61.71;100968.84;7656509;32;38349;-78
2021/12/15 02:28:21;;;;;;;29.87;17.35;;;;;;;1.83;62.67;100975.16;7659188;32;40042;-78
2021/12/15 02:32:55;;;;;;;30.62;16.02;;;;;;;1.97;62.83;100984.25;7657856;32;40518;-78
2021/12/15 02:37:18;;;;;;;27.35;16.52;;;;;;;2.11;62.69;100976.37;7657847;32;37638;-78
2021/12/15 02:41:35;;;;;;;36.30;18.27;;;;;;;2.17;62.48;100964.84;7658846;32;36936;-77
2021/12/15 02:45:51;;;;;;;32.08;17.62;;;;;;;2.17;62.41;100975.59;7658945;32;40069;-78
2021/12/15 02:50:12;;;;;;;33.30;17.27;;;;;;;2.27;62.72;100964.56;7657538;32;40573;-77
2021/12/15 02:54:29;;;;;;;33.10;17.62;;;;;;;2.20;63.23;100967.16;7657522;32;37918;-78
2021/12/15 02:58:53;;;;;;;30.02;16.85;;;;;;;2.43;62.43;100965.19;7657486;32;37329;-78
2021/12/15 03:07:49;;;;;;;34.00;16.85;;;;;;;2.18;63.70;100961.97;7651476;32;238090;-78
2021/12/15 03:16:42;;;;;;;35.13;17.27;;;;;;;2.05;64.13;100951.03;7659608;32;37192;-78
2021/12/15 03:21:07;;;;;;;30.30;17.40;;;;;;;2.17;63.83;100946.00;7659574;32;39287;-78
2021/12/15 03:25:25;;;;;;;33.63;17.35;;;;;;;2.08;64.38;100947.16;7659523;32;40120;-78
2021/12/15 03:38:46;;;;;;;32.88;18.02;;;;;;;2.46;63.28;100953.19;7659450;32;39859;-77
2021/12/15 03:43:07;;;;;;;27.70;16.33;;;;;;;2.15;64.17;100962.34;7659171;32;40954;-78
2021/12/15 03:47:28;;;;;;;31.45;17.33;;;;;;;2.41;63.35;100955.59;7659280;32;38150;-78
2021/12/15 03:51:44;;;;;;;29.90;16.73;;;;;;;2.55;62.72;100953.91;7658104;32;37051;-78
2021/12/15 03:56:01;;;;;;;33.70;16.40;;;;;;;2.39;63.28;100957.66;7659231;32;39629;-77
2021/12/15 04:00:18;;;;;;;27.23;16.48;;;;;;;2.37;63.48;100957.03;7659122;32;39680;-77
2021/12/15 04:04:34;;;;;;;28.08;16.23;;;;;;;2.40;63.53;100962.03;7659014;32;38809;-77
2021/12/15 04:08:51;;;;;;;32.03;17.70;;;;;;;2.38;63.77;100974.81;7658898;32;38010;-77
2021/12/15 04:13:09;;;;;;;28.17;16.12;;;;;;;2.27;64.46;100978.00;7659037;32;39117;-78
2021/12/15 04:17:32;;;;;;;28.87;15.73;;;;;;;2.62;63.00;100963.72;7658927;32;40746;-78
2021/12/15 04:21:49;;;;;;;30.60;17.42;;;;;;;2.58;62.89;100970.50;7658768;32;38740;-79
2021/12/15 04:26:05;;;;;;;27.45;16.02;;;;;;;2.43;63.38;100978.63;7658773;32;38259;-77
2021/12/15 04:30:22;;;;;;;26.98;16.20;;;;;;;2.24;63.80;100998.03;7658900;32;39370;-77
2021/12/15 04:34:38;;;;;;;30.80;16.17;;;;;;;2.28;63.97;100991.28;7658716;32;40028;-77
2021/12/15 04:38:56;;;;;;;31.27;16.75;;;;;;;2.42;63.84;100984.22;7658840;32;38055;-77
2021/12/15 04:43:12;;;;;;;28.10;15.68;;;;;;;2.43;63.91;100996.63;7658571;32;37250;-78
2021/12/15 04:47:28;;;;;;;28.45;16.83;;;;;;;2.57;63.36;100985.00;7657769;32;39433;-79
2021/12/15 04:51:47;;;;;;;27.55;15.38;;;;;;;2.51;63.76;100996.53;7658517;32;39867;-78
2021/12/15 04:56:05;;;;;;;28.00;15.10;;;;;;;2.44;63.91;101003.69;7658501;32;36953;-78
2021/12/15 05:00:26;;;;;;;25.00;14.85;;;;;;;2.22;64.27;101000.91;7658506;32;37195;-78
2021/12/15 05:04:42;;;;;;;29.95;16.02;;;;;;;2.36;63.69;100999.25;7658397;32;40192;-77
2021/12/15 05:09:00;;;;;;;30.17;15.95;;;;;;;2.68;62.98;101007.06;7658137;32;40746;-78
2021/12/15 05:13:16;;;;;;;28.65;14.80;;;;;;;2.48;63.52;101010.34;7657090;32;38213;-78
2021/12/15 05:17:32;;;;;;;27.87;15.50;;;;;;;2.49;63.37;101024.66;7658231;32;38073;-79
2021/12/15 05:21:51;;;;;;;25.55;14.35;;;;;;;2.44;63.68;101019.84;7656920;32;40020;-77
2021/12/15 05:26:07;;;;;;;27.70;15.20;;;;;;;2.41;63.98;101029.09;7658206;32;38944;-78
2021/12/15 05:30:23;;;;;;;27.40;15.18;;;;;;;2.60;63.23;101033.09;7658027;32;38905;-77
2021/12/15 05:34:40;;;;;;;31.48;14.73;;;;;;;2.56;63.40;101029.09;7658082;32;36910;-77
2021/12/15 05:38:56;;;;;;;29.15;16.50;;;;;;;2.73;63.09;101029.72;7658041;32;39498;-77
2021/12/15 05:43:13;;;;;;;32.72;17.20;;;;;;;2.86;62.78;101045.16;7656590;32;40716;-80
2021/12/15 05:47:30;;;;;;;27.37;14.95;;;;;;;2.75;63.16;101064.53;7657698;32;37657;-78
2021/12/15 05:51:46;;;;;;;28.42;15.52;;;;;;;2.38;64.46;101055.56;7656541;32;38077;-77
2021/12/15 05:56:02;;;;;;;30.65;15.90;;;;;;;2.42;63.98;101055.00;7657756;32;39579;-78
2021/12/15 06:00:23;;;;;;;30.77;15.73;;;;;;;2.55;63.56;101057.06;7657328;32;40033;-78
2021/12/15 06:04:39;;;;;;;36.83;19.65;;;;;;;2.47;64.02;101067.91;7657364;32;38004;-77
2021/12/15 06:08:59;;;;;;;38.58;21.10;;;;;;;2.40;63.72;101083.16;7657256;32;37153;-78
2021/12/15 06:13:16;;;;;;;34.80;19.23;;;;;;;2.31;63.91;101089.62;7656139;32;39316;-77
2021/12/15 06:17:32;;;;;;;39.13;19.95;;;;;;;2.70;64.52;101097.41;7657121;32;40721;-78
2021/12/15 06:21:48;;;;;;;44.15;21.35;;;;;;;2.70;62.97;101091.19;7656817;32;38867;-77
2021/12/15 06:26:06;;;;;;;38.78;19.52;;;;;;;2.76;63.04;101088.59;7656839;32;37262;-78
2021/12/15 06:30:22;;;;;;;43.13;20.80;;;;;;;2.56;63.56;101088.31;7656810;32;39902;-77
2021/12/15 06:34:39;;;;;;;45.95;21.92;;;;;;;2.63;63.48;101100.00;7656671;32;40770;-78
2021/12/15 06:38:56;;;;;;;51.28;21.92;;;;;;;2.76;63.18;101109.28;7656555;32;38004;-78
2021/12/15 06:43:13;;;;;;;68.03;22.25;;;;;;;2.73;63.40;101109.69;7656479;32;37168;-78
2021/12/15 07:01:14;;;;;;;72.00;26.67;;;;;;;2.34;65.65;101117.00;7656052;32;37014;-78
2021/12/15 07:05:32;;;;;;;79.80;27.62;;;;;;;2.72;64.44;101126.84;7655956;32;40218;-78
2021/12/15 07:09:48;;;;;;;78.75;28.40;;;;;;;2.31;65.66;101121.94;7656605;32;40755;-78
2021/12/15 07:14:04;;;;;;;62.53;26.02;;;;;;;2.36;65.67;101122.22;7659745;32;38625;-78
2021/12/15 07:18:27;;;;;;;83.70;26.10;;;;;;;2.67;64.47;101132.78;7659667;32;38041;-80
2021/12/15 07:22:44;;;;;;;87.03;28.17;;;;;;;2.41;65.86;101128.69;7659627;32;40190;-77
2021/12/15 07:27:01;;;;;;;91.43;28.10;;;;;;;2.67;65.05;101137.34;7659671;32;39763;-78
2021/12/15 07:31:19;;;;;;;73.37;28.48;;;;;;;2.81;64.68;101133.78;7659446;32;37901;-77
2021/12/15 07:35:37;;;;;;;86.78;28.80;;;;;;;2.78;64.81;101144.97;7659442;32;37281;-79
2021/12/15 07:39:59;;;;;;;170.82;33.88;;;;;;;2.79;64.76;101146.63;7658167;32;40221;-78
2021/12/15 07:44:16;;;;;;;108.15;33.15;;;;;;;2.54;66.03;101149.59;7659217;32;39881;-79
2021/12/15 07:48:35;;;;;;;78.78;31.15;;;;;;;2.52;66.22;101162.44;7658008;32;37850;-78
2021/12/15 07:52:52;;;;;;;121.85;31.48;;;;;;;2.75;65.57;101174.94;7659304;32;36933;-78
2021/12/15 07:57:11;;;;;;;218.60;33.67;;;;;;;2.47;66.74;101174.75;7657794;32;39908;-77
2021/12/15 08:01:27;;;;;;;149.02;30.55;;;;;;;2.58;66.60;101177.00;7659014;32;40105;-78
2021/12/15 08:05:46;;;;;;;87.45;28.48;;;;;;;2.91;65.64;101173.91;7658960;32;37777;-77
2021/12/15 08:10:08;;;;;;;181.90;31.20;;;;;;;2.94;65.72;101187.84;7658916;32;36156;-77
2021/12/15 08:14:24;;;;;;;98.68;30.12;;;;;;;2.68;66.67;101187.50;7659043;32;40296;-77
2021/12/15 08:18:41;;;;;;;119.57;30.17;;;;;;;2.90;66.02;101191.09;7657719;32;40798;-77
2021/12/15 08:22:57;;;;;;;110.85;31.27;;;;;;;2.80;66.59;101203.00;7657684;32;37629;-77
2021/12/15 08:27:14;;;;;;;114.32;31.20;;;;;;;2.89;66.82;101201.03;7658855;32;37011;-77
2021/12/15 08:31:30;;;;;;;168.60;29.60;;;;;;;3.16;66.24;101210.31;7658728;32;39854;-77
2021/12/15 08:35:48;;;;;;;142.93;30.83;;;;;;;3.49;65.29;101206.34;7645102;32;40078;-77
2021/12/15 08:40:05;;;;;;;109.50;29.98;;;;;;;3.38;65.32;101221.97;7658778;32;36996;-77
2021/12/15 08:44:21;;;;;;;149.98;29.15;;;;;;;3.33;65.63;101228.97;7658550;32;38239;-78
2021/12/15 08:48:39;;;;;;;86.15;28.73;;;;;;;2.69;68.13;101222.31;7658583;32;39047;-78
2021/12/15 08:52:56;;;;;;;111.45;34.33;;;;;;;3.38;66.23;101221.13;7658447;32;40837;-77
2021/12/15 08:57:12;;;;;;;69.50;31.60;;;;;;;3.51;65.95;101224.00;7658436;32;38780;-78
2021/12/15 09:01:28;;;;;;;81.80;28.80;;;;;;;3.83;64.79;101218.28;7658460;32;37244;-78
2021/12/15 09:05:49;;;;;;;72.40;26.10;;;;;;;4.19;64.02;101220.94;7658356;32;39428;-78
2021/12/15 09:10:09;;;;;;;65.25;26.98;;;;;;;4.01;64.02;101209.78;7658161;32;40840;-78
2021/12/15 09:14:25;;;;;;;62.85;26.33;;;;;;;4.10;64.42;101220.22;7658330;32;38051;-79
2021/12/15 09:18:43;;;;;;;70.07;31.40;;;;;;;4.25;63.85;101203.94;7658354;32;37190;-77
2021/12/15 09:23:02;;;;;;;51.92;24.87;;;;;;;4.30;63.02;101208.78;7658187;32;38416;-78
2021/12/15 09:27:18;;;;;;;74.28;25.48;;;;;;;4.09;63.56;101199.66;7658387;32;38978;-78
2021/12/15 09:31:35;;;;;;;60.12;27.85;;;;;;;4.22;63.15;101217.00;7657792;32;38011;-78
2021/12/15 09:35:52;;;;;;;64.47;29.17;;;;;;;4.60;61.90;101213.97;7658035;32;37180;-78
2021/12/15 09:40:11;;;;;;;70.82;29.25;;;;;;;4.59;61.62;101215.00;7657967;32;39398;-77
2021/12/15 09:44:28;;;;;;;60.63;29.92;;;;;;;4.36;63.11;101218.78;7657878;32;38922;-78
2021/12/15 10:02:26;;;;;;;75.47;30.57;;;;;;;4.22;63.17;101220.53;7657524;32;40136;-78
2021/12/15 10:20:37;;;;;;;47.03;25.88;;;;;;;4.55;62.67;101229.94;7657279;32;40112;-77
2021/12/15 10:25:24;;;;;;;46.45;26.33;;;;;;;4.49;63.35;101224.28;7656889;32;38046;-78
2021/12/15 10:30:06;;;;;;;46.78;25.88;;;;;;;4.75;62.10;101230.91;7651009;32;37264;-78
2021/12/15 10:34:22;;;;;;;49.72;27.48;;;;;;;4.60;62.44;101228.31;7656921;32;39315;-79
2021/12/15 10:38:57;;;;;;;61.80;29.67;;;;;;;4.58;62.21;101238.47;7655752;32;39936;-78
2021/12/15 10:43:14;;;;;;;63.35;30.17;;;;;;;4.85;61.54;101234.09;7656558;32;37951;-78
2021/12/15 10:47:38;;;;;;;55.22;30.20;;;;;;;5.01;61.15;101229.41;7659601;32;37944;-78
2021/12/15 10:52:02;;;;;;;56.72;28.80;;;;;;;5.07;60.92;101220.47;7659906;32;40139;-78
2021/12/15 10:56:27;;;;;;;68.32;34.85;;;;;;;5.24;60.37;101232.63;7659931;32;40880;-78
2021/12/15 11:00:43;;;;;;;60.60;32.25;;;;;;;5.18;60.90;101228.03;7659851;32;37940;-77
2021/12/15 11:05:15;;;;;;;60.80;31.58;;;;;;;5.14;60.37;101215.09;7658612;32;37038;-78
2021/12/15 11:09:55;;;;;;;63.95;32.40;;;;;;;5.16;60.91;101223.87;7659686;32;40170;-77
2021/12/15 11:14:30;;;;;;;64.80;33.65;;;;;;;5.30;60.46;101224.75;7653640;32;40488;-77
2021/12/15 11:18:46;;;;;;;64.20;31.92;;;;;;;5.14;60.48;101223.22;7659700;32;38316;-77
2021/12/15 11:23:07;;;;;;;68.07;34.70;;;;;;;5.11;60.58;101218.22;7659500;32;35876;-78
2021/12/15 11:27:23;;;;;;;62.75;32.40;;;;;;;4.73;61.11;101219.47;7659665;32;39395;-77
2021/12/15 11:31:40;;;;;;;65.87;33.80;;;;;;;5.12;60.90;101211.75;7659532;32;40537;-77
2021/12/15 11:35:58;;;;;;;65.25;33.38;;;;;;;4.84;61.12;101205.38;7659360;32;38718;-77
2021/12/15 11:40:21;;;;;;;70.10;34.28;;;;;;;4.80;61.38;101209.53;7658319;32;36599;-78
2021/12/15 11:44:42;;;;;;;58.10;33.83;;;;;;;5.03;60.84;101197.59;7659397;32;39359;-78
2021/12/15 11:49:20;;;;;;;72.00;35.67;;;;;;;5.20;60.89;101195.38;7658228;32;40687;-78
2021/12/15 11:53:43;;;;;;;68.97;35.78;;;;;;;5.41;60.50;101199.81;7659231;32;38776;-78
2021/12/15 11:57:59;;;;;;;71.68;36.58;;;;;;;5.46;59.87;101187.34;7658978;32;37919;-79
2021/12/15 12:02:30;;;;;;;61.50;34.38;;;;;;;5.24;60.01;101191.22;7659084;32;40207;-79
2021/12/15 12:06:50;;;;;;;68.37;33.28;;;;;;;5.51;60.37;101184.03;7658748;32;40914;-78
2021/12/15 12:11:15;;;;;;;65.00;34.13;;;;;;;5.77;59.35;101185.13;7658877;32;37853;-77
2021/12/15 12:15:33;;;;;;;60.40;33.58;;;;;;;5.76;59.37;101181.59;7659030;32;37568;-77
2021/12/15 12:20:00;;;;;;;66.43;34.70;;;;;;;5.98;59.19;101179.56;7658965;32;38316;-77
2021/12/15 12:24:18;;;;;;;54.65;29.37;;;;;;;5.80;59.77;101190.97;7658962;32;40641;-77
2021/12/15 12:28:38;;;;;;;54.42;30.48;;;;;;;5.93;58.74;101181.19;7658795;32;39937;-77
2021/12/15 12:32:55;;;;;;;49.70;26.87;;;;;;;6.33;57.78;101179.34;7658932;32;37817;-77
2021/12/15 12:37:12;;;;;;;52.25;27.95;;;;;;;6.50;57.16;101176.19;7658698;32;39438;-77
2021/12/15 12:41:31;;;;;;;50.92;27.75;;;;;;;6.84;55.73;101172.37;7657698;32;40717;-78
2021/12/15 12:46:14;;;;;;;52.80;28.60;;;;;;;7.65;52.40;101153.84;7658566;32;37897;-77
2021/12/15 12:59:58;;;;;;;50.78;28.65;;;;;;;9.29;48.62;101139.06;7658530;32;39999;-77
2021/12/15 13:04:14;;;;;;;47.92;28.60;;;;;;;9.51;47.00;101150.25;7658302;32;37962;-77
2021/12/15 13:08:34;;;;;;;47.70;26.17;;;;;;;9.75;46.33;101151.97;7652690;32;38214;-79
2021/12/15 13:13:10;;;;;;;42.42;23.95;;;;;;;9.75;45.98;101148.44;7628977;32;39863;-77
2021/12/15 13:17:34;;;;;;;41.53;22.92;;;;;;;10.08;45.14;101144.34;7620254;32;40712;-78
2021/12/15 13:31:28;;;;;;;35.15;18.48;;;;;;;11.69;39.77;101161.12;7630947;32;39329;-78
2021/12/15 13:35:52;;;;;;;34.72;20.08;;;;;;;11.91;38.30;101164.81;7631659;32;40883;-78
2021/12/15 13:40:13;;;;;;;32.85;19.17;;;;;;;12.40;37.31;101167.81;7631233;32;37973;-78
2021/12/15 13:44:35;;;;;;;33.13;18.95;;;;;;;12.67;35.68;101164.34;7631253;32;37729;-79
2021/12/15 13:49:10;;;;;;;31.90;18.58;;;;;;;12.70;35.82;101160.31;7631238;32;40025;-79
2021/12/15 13:53:32;;;;;;;30.25;19.83;;;;;;;13.15;35.00;101162.78;7630786;32;40619;-78
2021/12/15 13:57:57;;;;;;;35.55;20.55;;;;;;;13.30;34.49;101164.88;7631265;32;37997;-80
2021/12/15 14:02:19;;;;;;;36.85;21.55;;;;;;;13.35;34.55;101166.91;7630477;32;38625;-79
2021/12/15 14:06:36;;;;;;;34.80;21.08;;;;;;;12.82;35.13;101166.47;7631071;32;40093;-79
2021/12/15 14:11:07;;;;;;;38.40;23.38;;;;;;;11.87;37.46;101174.56;7630717;32;40616;-79
2021/12/15 14:15:34;;;;;;;37.42;22.52;;;;;;;10.82;39.67;101185.63;7630305;32;38768;-78
2021/12/15 14:19:50;;;;;;;40.85;22.87;;;;;;;9.93;42.00;101177.47;7632307;32;37275;-79
2021/12/15 14:24:08;;;;;;;40.60;22.83;;;;;;;9.63;43.22;101178.34;7633294;32;40139;-80
2021/12/15 14:28:33;;;;;;;42.13;23.58;;;;;;;8.95;44.91;101196.59;7634108;32;40636;-79
2021/12/15 14:32:50;;;;;;;38.42;24.05;;;;;;;8.33;46.80;101212.03;7632943;32;37745;-77
2021/12/15 14:37:13;;;;;;;40.88;23.42;;;;;;;7.88;47.60;101204.84;7633846;32;37262;-79
2021/12/15 14:41:32;;;;;;;40.40;23.45;;;;;;;7.52;48.86;101220.72;7632371;32;39408;-79
2021/12/15 14:45:48;;;;;;;42.75;24.60;;;;;;;7.42;49.26;101217.63;7632969;32;40873;-79
2021/12/15 14:50:14;;;;;;;42.15;24.25;;;;;;;6.64;51.69;101225.78;7633551;32;38676;-79
2021/12/15 14:54:31;;;;;;;39.63;23.17;;;;;;;6.35;52.50;101219.78;7631974;32;37182;-77
2021/12/15 14:58:54;;;;;;;44.88;25.33;;;;;;;6.65;51.57;101211.22;7633780;32;39389;-79
2021/12/15 15:03:11;;;;;;;45.55;24.23;;;;;;;6.28;52.35;101200.81;7631641;32;40701;-79
2021/12/15 15:07:32;;;;;;;41.95;23.77;;;;;;;6.15;52.67;101207.06;7633237;32;38480;-77
2021/12/15 15:11:59;;;;;;;40.35;23.70;;;;;;;5.73;54.18;101219.06;7632702;32;37321;-78
2021/12/15 15:16:21;;;;;;;48.35;25.20;;;;;;;5.62;54.17;101224.03;7632620;32;39450;-78
2021/12/15 15:21:00;;;;;;;50.40;26.42;;;;;;;5.38;54.78;101222.72;7633158;32;39907;-77
2021/12/15 15:25:21;;;;;;;44.50;26.12;;;;;;;5.20;55.43;101214.31;7632303;32;38687;-78
2021/12/15 15:29:44;;;;;;;45.00;25.23;;;;;;;4.98;55.96;101222.50;7631242;32;37933;-76
2021/12/15 15:34:00;;;;;;;46.50;25.12;;;;;;;4.66;57.22;101232.09;7633248;32;39117;-77
2021/12/15 15:38:22;;;;;;;44.33;24.37;;;;;;;4.88;56.32;101233.69;7632433;32;39930;-75
2021/12/15 15:42:41;;;;;;;45.45;24.67;;;;;;;4.76;56.30;101250.63;7633170;32;38747;-76
2021/12/15 15:46:57;;;;;;;38.00;23.05;;;;;;;4.56;56.98;101243.25;7632295;32;37123;-77
2021/12/15 15:51:29;;;;;;;41.50;24.65;;;;;;;4.54;57.47;101260.69;7632826;32;39275;-77
2021/12/15 15:55:48;;;;;;;41.58;25.73;;;;;;;4.63;57.12;101264.91;7632656;32;39916;-77
2021/12/15 16:00:07;;;;;;;41.08;23.98;;;;;;;4.31;57.87;101264.41;7631050;32;36874;-77
2021/12/15 16:04:24;;;;;;;43.85;24.55;;;;;;;4.33;57.78;101268.63;7632818;32;37343;-78
2021/12/15 16:08:43;;;;;;;43.58;25.27;;;;;;;4.49;57.40;101258.56;7632076;32;40383;-78
2021/12/15 16:13:03;;;;;;;46.25;24.70;;;;;;;4.39;58.25;101240.00;7631356;32;40596;-77
2021/12/15 16:17:38;;;;;;;51.80;29.55;;;;;;;4.28;58.68;101244.06;7631911;32;38741;-77
2021/12/15 16:26:44;;;;;;;57.75;31.23;;;;;;;4.67;57.63;101240.00;7632226;32;39925;-76
2021/12/15 16:31:04;;;;;;;52.33;30.05;;;;;;;4.25;59.69;101240.91;7632088;32;40150;-77
2021/12/15 16:35:24;;;;;;;54.50;29.42;;;;;;;4.28;59.43;101257.56;7631251;32;37787;-77
2021/12/15 16:39:47;;;;;;;55.50;29.75;;;;;;;4.35;58.96;101264.88;7631545;32;37188;-76
2021/12/15 16:44:17;;;;;;;55.73;32.43;;;;;;;4.04;59.78;101268.75;7630982;32;39607;-77
2021/12/15 16:48:40;;;;;;;64.60;32.53;;;;;;;4.15;59.27;101262.84;7631977;32;39973;-76
2021/12/15 16:52:56;;;;;;;53.63;29.95;;;;;;;4.27;59.05;101257.75;7631900;32;37854;-76
2021/12/15 16:57:19;;;;;;;54.72;28.80;;;;;;;4.18;59.55;101269.72;7631909;32;37213;-76
2021/12/15 17:01:36;;;;;;;;;;;;;;;4.47;58.50;101258.75;7631839;32;37840;-77
2021/12/15 17:05:52;;;;;;;56.63;30.25;;;;;;;4.49;58.42;101263.97;7632416;32;41106;-76
2021/12/15 17:10:14;;;;;;;52.22;28.92;;;;;;;4.04;59.56;101269.59;7630482;32;37914;-77
2021/12/15 17:14:45;;;;;;;54.30;29.63;;;;;;;3.83;60.39;101269.56;7632232;32;37833;-77
2021/12/15 17:19:12;;;;;;;49.63;29.15;;;;;;;3.62;61.11;101260.41;7632195;32;39409;-75
2021/12/15 17:23:34;;;;;;;49.78;27.77;;;;;;;3.87;60.17;101268.16;7631009;32;40430;-78
2021/12/15 17:28:04;;;;;;;52.67;30.27;;;;;;;4.05;59.86;101259.63;7631629;32;38750;-76
2021/12/15 17:32:20;;;;;;;50.55;29.02;;;;;;;4.17;59.84;101258.06;7631949;32;38034;-77
2021/12/15 17:36:46;;;;;;;59.42;31.35;;;;;;;3.93;61.06;101245.78;7631930;32;39295;-75
2021/12/15 17:41:11;;;;;;;59.15;31.00;;;;;;;3.63;61.68;101259.38;7631782;32;40089;-77
2021/12/15 17:45:46;;;;;;;48.33;27.83;;;;;;;3.90;60.99;101240.81;7631668;32;37712;-76
2021/12/15 17:50:05;;;;;;;57.75;28.30;;;;;;;4.14;60.84;101242.28;7631645;32;38032;-76
2021/12/15 17:54:27;;;;;;;51.15;28.50;;;;;;;3.86;61.53;101247.59;7631328;32;39017;-77
2021/12/15 17:58:46;;;;;;;56.05;30.65;;;;;;;3.94;61.83;101250.19;7631482;32;39957;-77
2021/12/15 18:03:06;;;;;;;46.75;27.80;;;;;;;3.89;61.93;101256.12;7631556;32;37890;-77
2021/12/15 18:07:22;;;;;;;47.97;26.50;;;;;;;3.71;62.62;101263.84;7631156;32;37814;-77
2021/12/15 18:11:41;;;;;;;50.03;25.80;;;;;;;3.95;61.85;101258.09;7631132;32;39086;-77
2021/12/15 18:15:58;;;;;;;51.22;26.62;;;;;;;3.97;61.86;101255.19;7631159;32;40795;-77
2021/12/15 18:20:15;;;;;;;46.58;25.40;;;;;;;3.98;62.15;101261.41;7630915;32;38682;-78
2021/12/15 18:24:32;;;;;;;42.95;24.30;;;;;;;3.89;63.11;101263.41;7630836;32;37285;-77
2021/12/15 18:28:49;;;;;;;41.63;24.10;;;;;;;3.92;63.55;101266.56;7631037;32;40151;-78
2021/12/15 18:33:09;;;;;;;49.05;25.98;;;;;;;4.07;63.66;101263.81;7630912;32;40518;-78
2021/12/15 18:37:29;;;;;;;45.53;24.92;;;;;;;4.23;63.31;101272.69;7629413;32;38766;-77
2021/12/15 18:41:47;;;;;;;44.03;25.12;;;;;;;4.25;63.67;101271.44;7630571;32;37314;-78
2021/12/15 18:46:05;;;;;;;49.55;25.90;;;;;;;4.21;64.58;101263.91;7630500;32;39200;-78
2021/12/15 18:50:25;;;;;;;44.70;25.75;;;;;;;4.43;63.97;101279.09;7630199;32;40805;-78
2021/12/15 18:54:42;;;;;;;51.10;27.52;;;;;;;4.44;64.14;101264.53;7630013;32;38711;-78
2021/12/15 18:59:02;;;;;;;42.72;24.67;;;;;;;4.41;64.62;101272.19;7630109;32;38264;-77
2021/12/15 19:03:20;;;;;;;57.20;32.05;;;;;;;4.51;63.55;101275.41;7629956;32;39337;-77
2021/12/15 19:07:37;;;;;;;55.53;31.58;;;;;;;4.37;63.07;101277.16;7632217;32;39003;-78
2021/12/15 19:11:55;;;;;;;48.08;26.95;;;;;;;4.26;62.71;101272.25;7633492;32;38107;-79
2021/12/15 19:16:13;;;;;;;52.55;26.75;;;;;;;4.00;64.03;101265.62;7633581;32;36183;-78
2021/12/15 19:20:32;;;;;;;43.95;24.70;;;;;;;4.39;63.60;101267.00;7633456;32;39310;-78
2021/12/15 19:24:49;;;;;;;46.20;25.62;;;;;;;4.53;62.92;101273.34;7633317;32;40921;-78
2021/12/15 19:29:07;;;;;;;48.72;27.90;;;;;;;4.69;62.72;101270.34;7633269;32;37999;-77
2021/12/15 19:33:24;;;;;;;52.15;27.73;;;;;;;4.62;63.24;101277.59;7633374;32;37822;-79
2021/12/15 19:37:40;;;;;;;54.13;29.95;;;;;;;4.70;63.54;101273.87;7633145;32;39297;-77
2021/12/15 19:41:56;;;;;;;48.40;27.92;;;;;;;4.63;63.97;101268.44;7633158;32;39925;-79
2021/12/15 19:46:13;;;;;;;51.70;26.48;;;;;;;4.74;64.00;101275.16;7633009;32;38823;-79
2021/12/15 19:50:33;;;;;;;46.88;27.52;;;;;;;5.11;62.28;101272.28;7633090;32;37014;-78
2021/12/15 19:54:49;;;;;;;50.15;27.15;;;;;;;4.90;63.00;101276.75;7633035;32;39316;-78
2021/12/15 19:59:07;;;;;;;48.83;26.20;;;;;;;4.78;63.54;101287.25;7632959;32;40604;-78
2021/12/15 20:03:23;;;;;;;48.03;26.83;;;;;;;4.77;64.00;101285.56;7632875;32;38789;-78
2021/12/15 20:07:40;;;;;;;53.47;28.08;;;;;;;4.68;64.65;101284.06;7632604;32;37066;-77
2021/12/15 20:11:58;;;;;;;44.92;26.08;;;;;;;4.83;64.53;101278.53;7633117;32;40082;-77
2021/12/15 20:16:14;;;;;;;49.92;27.13;;;;;;;4.76;64.87;101294.72;7631443;32;39936;-77
2021/12/15 20:20:31;;;;;;;51.33;29.30;;;;;;;4.65;65.78;101293.38;7632825;32;37910;-76
2021/12/15 20:24:50;;;;;;;46.85;25.40;;;;;;;4.79;65.29;101293.47;7632698;32;38164;-78
2021/12/15 20:29:06;;;;;;;46.40;25.00;;;;;;;5.00;64.73;101290.75;7632785;32;38247;-78
2021/12/15 20:33:24;;;;;;;45.38;25.48;;;;;;;5.18;64.36;101290.22;7632583;32;39925;-78
2021/12/15 20:37:40;;;;;;;49.53;26.45;;;;;;;5.09;64.49;101283.31;7632515;32;37918;-78
2021/12/15 20:41:57;;;;;;;47.58;26.62;;;;;;;5.11;64.41;101283.94;7632523;32;37531;-79
2021/12/15 20:46:13;;;;;;;50.67;26.55;;;;;;;5.23;63.62;101276.94;7631290;32;39284;-78
2021/12/15 20:50:31;;;;;;;49.75;26.12;;;;;;;5.21;63.64;101276.28;7632426;32;40829;-77
2021/12/15 20:54:47;;;;;;;42.58;23.50;;;;;;;5.19;64.05;101270.25;7632286;32;38670;-78
2021/12/15 20:59:05;;;;;;;47.62;25.73;;;;;;;5.41;63.52;101265.56;7632473;32;37036;-78
2021/12/15 21:03:22;;;;;;;53.08;26.37;;;;;;;5.32;64.00;101265.94;7632325;32;39405;-78
2021/12/15 21:07:39;;;;;;;47.55;25.35;;;;;;;5.34;64.03;101263.87;7630789;32;39921;-77
2021/12/15 21:11:55;;;;;;;42.33;23.87;;;;;;;5.46;63.55;101268.50;7632050;32;38162;-78
2021/12/15 21:16:16;;;;;;;48.58;26.05;;;;;;;5.17;64.67;101261.50;7632147;32;38017;-78
2021/12/15 21:20:33;;;;;;;43.70;25.37;;;;;;;5.40;64.11;101271.19;7632158;32;39114;-78
2021/12/15 21:24:49;;;;;;;46.47;25.60;;;;;;;5.45;64.21;101260.59;7631996;32;40130;-77
2021/12/15 21:29:10;;;;;;;48.60;26.52;;;;;;;5.51;63.80;101270.59;7631172;32;38704;-78
2021/12/15 21:33:27;;;;;;;52.38;26.87;;;;;;;5.47;63.96;101263.94;7632100;32;37554;-78
2021/12/15 21:37:43;;;;;;;49.13;25.92;;;;;;;5.35;64.42;101270.97;7631824;32;40043;-78
2021/12/15 21:42:00;;;;;;;45.92;26.27;;;;;;;4.84;65.91;101267.53;7631871;32;39875;-78
2021/12/15 21:46:17;;;;;;;48.13;27.35;;;;;;;5.13;64.45;101273.75;7631418;32;38693;-77
2021/12/15 21:50:34;;;;;;;51.28;28.35;;;;;;;5.24;63.93;101275.03;7631595;32;37760;-78